Ana Sayfa
METAR-TAF:

METAR-TAF

Havaalanları :

Luksor, Mısır

Enlem: 25-40N, Boylam: 032-42E, yükseklik: 93 m

Güncel hava durumu gözlemi

Rapor saat 13:00 UTC de 1 saat ve 17 dakika önce yapıldı.
Rüzgar batı/kuzeybatıdan 12 kt
Sıcaklık 35°C
Nem 17%
Basınç 1009 hPa
Görüş mesafesi 10 km veya daha fazla
1500 m altında bulut yok ve kümülonimbus yok

METAR: HELX 281300Z 30012KT CAVOK 35/06 Q1009

Saat: 16:17 (14:17 UTC)

Tahmin

Rapor saat 11:00 UTC de 3 saat ve 17 dakika önce yapıldı.
Ayın 28'si saat 12 UTC'den ayın 29'si saat 18 UTC'ye kadar geçerli Tahmin
Rüzgar batı/kuzeybatıdan 10 kt
Görüş mesafesi 10 km veya daha fazla
1500 m altında bulut yok ve kümülonimbus yok

TAF: HELX 281100Z 2812/2918 29010KT CAVOK

4.000'den fazla havaalanı için hava durumu gözlemleri ve tahminleri (METAR ve TAF raporları).

Kullanılabilir istasyonlar harita üzerinde sarı ve kırmızı noktalarla gösterilir.

İstasyonun adını görmek için fareyi noktanın üzerinde gezdirin.

Sonrasında hava gözlem ve tahminlerini görmek için tıklayın.

Haritayı değiştirmek için: yaklaştırmak için siyah artı işaretli yeşil düğmeye ve uzaklaştırmak için de eksi işaretli düğmeye hızla tıklayın; bitişik haritalar için yeşil okları kullanın.


METAR-TAF: